sensor_id;sensor_type;location;lat;lon;timestamp;P1;durP1;ratioP1;P2;durP2;ratioP2
16979;SDS011;42288;52.182;21.156;2022-09-09T00:00:16;15.43;;;5.50;;
16979;SDS011;42288;52.182;21.156;2022-09-09T00:02:47;14.10;;;5.97;;
16979;SDS011;42288;52.182;21.156;2022-09-09T00:05:32;13.33;;;6.10;;
16979;SDS011;42288;52.182;21.156;2022-09-09T00:08:11;12.20;;;6.07;;
16979;SDS011;42288;52.182;21.156;2022-09-09T00:10:44;9.30;;;5.30;;
16979;SDS011;42288;52.182;21.156;2022-09-09T00:13:32;10.87;;;5.37;;
16979;SDS011;42288;52.182;21.156;2022-09-09T00:16:07;11.90;;;5.73;;
16979;SDS011;42288;52.182;21.156;2022-09-09T00:21:15;12.97;;;5.90;;
16979;SDS011;42288;52.182;21.156;2022-09-09T00:23:47;12.07;;;6.63;;
16979;SDS011;42288;52.182;21.156;2022-09-09T00:26:19;14.20;;;5.80;;
16979;SDS011;42288;52.182;21.156;2022-09-09T00:29:00;20.23;;;6.73;;
16979;SDS011;42288;52.182;21.156;2022-09-09T00:31:35;15.30;;;7.00;;
16979;SDS011;42288;52.182;21.156;2022-09-09T00:34:21;14.97;;;6.23;;
16979;SDS011;42288;52.182;21.156;2022-09-09T00:36:50;10.90;;;5.97;;
16979;SDS011;42288;52.182;21.156;2022-09-09T00:39:29;14.00;;;7.63;;
16979;SDS011;42288;52.182;21.156;2022-09-09T00:44:56;12.67;;;6.60;;
16979;SDS011;42288;52.182;21.156;2022-09-09T00:47:43;15.07;;;6.43;;
16979;SDS011;42288;52.182;21.156;2022-09-09T00:50:20;16.47;;;6.73;;
16979;SDS011;42288;52.182;21.156;2022-09-09T00:56:12;12.87;;;6.87;;
16979;SDS011;42288;52.182;21.156;2022-09-09T00:58:38;13.10;;;7.00;;
16979;SDS011;42288;52.182;21.156;2022-09-09T01:01:12;14.60;;;6.90;;
16979;SDS011;42288;52.182;21.156;2022-09-09T01:06:21;15.47;;;6.47;;
16979;SDS011;42288;52.182;21.156;2022-09-09T01:09:01;16.70;;;6.70;;
16979;SDS011;42288;52.182;21.156;2022-09-09T01:14:30;14.73;;;7.00;;
16979;SDS011;42288;52.182;21.156;2022-09-09T01:25:29;14.73;;;5.90;;
16979;SDS011;42288;52.182;21.156;2022-09-09T01:28:28;15.23;;;6.90;;
16979;SDS011;42288;52.182;21.156;2022-09-09T01:30:56;16.07;;;7.00;;
16979;SDS011;42288;52.182;21.156;2022-09-09T01:33:23;16.07;;;7.27;;
16979;SDS011;42288;52.182;21.156;2022-09-09T01:35:50;14.60;;;7.57;;
16979;SDS011;42288;52.182;21.156;2022-09-09T01:38:20;12.20;;;6.60;;
16979;SDS011;42288;52.182;21.156;2022-09-09T01:40:47;13.83;;;6.40;;
16979;SDS011;42288;52.182;21.156;2022-09-09T01:43:14;16.37;;;7.30;;
16979;SDS011;42288;52.182;21.156;2022-09-09T01:45:39;14.73;;;7.17;;
16979;SDS011;42288;52.182;21.156;2022-09-09T01:48:06;15.63;;;7.37;;
16979;SDS011;42288;52.182;21.156;2022-09-09T01:50:31;12.87;;;6.80;;
16979;SDS011;42288;52.182;21.156;2022-09-09T01:52:58;16.63;;;7.30;;
16979;SDS011;42288;52.182;21.156;2022-09-09T01:55:30;14.47;;;7.43;;
16979;SDS011;42288;52.182;21.156;2022-09-09T02:00:58;16.50;;;7.60;;
16979;SDS011;42288;52.182;21.156;2022-09-09T02:03:47;19.67;;;7.43;;
16979;SDS011;42288;52.182;21.156;2022-09-09T02:06:22;13.40;;;7.10;;
16979;SDS011;42288;52.182;21.156;2022-09-09T02:08:59;18.33;;;7.47;;
16979;SDS011;42288;52.182;21.156;2022-09-09T02:11:28;14.90;;;7.57;;
16979;SDS011;42288;52.182;21.156;2022-09-09T02:13:56;13.47;;;7.00;;
16979;SDS011;42288;52.182;21.156;2022-09-09T02:16:28;14.97;;;7.60;;
16979;SDS011;42288;52.182;21.156;2022-09-09T02:21:54;16.27;;;7.93;;
16979;SDS011;42288;52.182;21.156;2022-09-09T02:24:22;15.60;;;7.40;;
16979;SDS011;42288;52.182;21.156;2022-09-09T02:26:49;18.57;;;8.63;;
16979;SDS011;42288;52.182;21.156;2022-09-09T02:29:19;15.03;;;8.03;;
16979;SDS011;42288;52.182;21.156;2022-09-09T02:31:55;13.97;;;7.20;;
16979;SDS011;42288;52.182;21.156;2022-09-09T02:34:25;14.13;;;6.90;;
16979;SDS011;42288;52.182;21.156;2022-09-09T02:36:53;14.77;;;8.00;;
16979;SDS011;42288;52.182;21.156;2022-09-09T02:39:19;16.67;;;8.23;;
16979;SDS011;42288;52.182;21.156;2022-09-09T02:41:45;19.17;;;8.27;;
16979;SDS011;42288;52.182;21.156;2022-09-09T02:44:13;16.63;;;8.17;;
16979;SDS011;42288;52.182;21.156;2022-09-09T02:47:04;18.90;;;8.77;;
16979;SDS011;42288;52.182;21.156;2022-09-09T02:52:32;16.07;;;8.70;;
16979;SDS011;42288;52.182;21.156;2022-09-09T02:57:53;19.30;;;8.30;;
16979;SDS011;42288;52.182;21.156;2022-09-09T03:00:25;17.43;;;8.73;;
16979;SDS011;42288;52.182;21.156;2022-09-09T03:02:52;15.97;;;8.83;;
16979;SDS011;42288;52.182;21.156;2022-09-09T03:05:19;14.07;;;7.80;;
16979;SDS011;42288;52.182;21.156;2022-09-09T03:07:45;13.57;;;8.37;;
16979;SDS011;42288;52.182;21.156;2022-09-09T03:10:11;15.07;;;7.77;;
16979;SDS011;42288;52.182;21.156;2022-09-09T03:12:36;17.27;;;7.83;;
16979;SDS011;42288;52.182;21.156;2022-09-09T03:15:03;15.57;;;8.23;;
16979;SDS011;42288;52.182;21.156;2022-09-09T03:17:29;14.93;;;8.10;;
16979;SDS011;42288;52.182;21.156;2022-09-09T03:19:55;16.07;;;8.10;;
16979;SDS011;42288;52.182;21.156;2022-09-09T03:22:23;14.20;;;7.67;;
16979;SDS011;42288;52.182;21.156;2022-09-09T03:24:50;15.40;;;8.33;;
16979;SDS011;42288;52.182;21.156;2022-09-09T03:27:16;17.07;;;8.40;;
16979;SDS011;42288;52.182;21.156;2022-09-09T03:29:42;12.83;;;7.23;;
16979;SDS011;42288;52.182;21.156;2022-09-09T03:32:07;13.63;;;8.03;;
16979;SDS011;42288;52.182;21.156;2022-09-09T03:34:35;15.13;;;8.10;;
16979;SDS011;42288;52.182;21.156;2022-09-09T03:37:03;14.57;;;7.60;;
16979;SDS011;42288;52.182;21.156;2022-09-09T03:39:29;12.53;;;7.30;;
16979;SDS011;42288;52.182;21.156;2022-09-09T03:41:55;12.63;;;6.73;;
16979;SDS011;42288;52.182;21.156;2022-09-09T03:44:20;16.70;;;7.43;;
16979;SDS011;42288;52.182;21.156;2022-09-09T03:46:46;14.20;;;7.07;;
16979;SDS011;42288;52.182;21.156;2022-09-09T03:49:12;12.03;;;6.90;;
16979;SDS011;42288;52.182;21.156;2022-09-09T03:51:37;11.93;;;6.20;;
16979;SDS011;42288;52.182;21.156;2022-09-09T03:54:03;12.50;;;6.87;;
16979;SDS011;42288;52.182;21.156;2022-09-09T03:56:30;13.63;;;6.60;;
16979;SDS011;42288;52.182;21.156;2022-09-09T03:58:56;13.03;;;6.53;;
16979;SDS011;42288;52.182;21.156;2022-09-09T04:01:22;10.70;;;6.37;;
16979;SDS011;42288;52.182;21.156;2022-09-09T04:03:48;9.27;;;5.40;;
16979;SDS011;42288;52.182;21.156;2022-09-09T04:06:13;10.53;;;6.00;;
16979;SDS011;42288;52.182;21.156;2022-09-09T04:08:40;10.60;;;5.43;;
16979;SDS011;42288;52.182;21.156;2022-09-09T04:11:06;10.93;;;6.40;;
16979;SDS011;42288;52.182;21.156;2022-09-09T04:13:35;9.93;;;5.40;;
16979;SDS011;42288;52.182;21.156;2022-09-09T04:16:05;9.47;;;5.90;;
16979;SDS011;42288;52.182;21.156;2022-09-09T04:18:31;9.73;;;5.07;;
16979;SDS011;42288;52.182;21.156;2022-09-09T04:20:57;10.33;;;5.50;;
16979;SDS011;42288;52.182;21.156;2022-09-09T04:23:24;10.40;;;5.63;;
16979;SDS011;42288;52.182;21.156;2022-09-09T04:25:52;8.63;;;5.03;;
16979;SDS011;42288;52.182;21.156;2022-09-09T04:28:20;7.77;;;4.60;;
16979;SDS011;42288;52.182;21.156;2022-09-09T04:30:47;8.33;;;4.80;;
16979;SDS011;42288;52.182;21.156;2022-09-09T04:33:13;8.07;;;5.33;;
16979;SDS011;42288;52.182;21.156;2022-09-09T04:35:39;10.10;;;5.47;;
16979;SDS011;42288;52.182;21.156;2022-09-09T04:38:10;9.40;;;5.07;;
16979;SDS011;42288;52.182;21.156;2022-09-09T04:40:35;8.93;;;5.20;;
16979;SDS011;42288;52.182;21.156;2022-09-09T04:43:02;9.00;;;4.63;;
16979;SDS011;42288;52.182;21.156;2022-09-09T04:45:29;6.27;;;4.30;;
16979;SDS011;42288;52.182;21.156;2022-09-09T04:47:55;8.60;;;5.37;;
16979;SDS011;42288;52.182;21.156;2022-09-09T04:50:20;6.70;;;4.70;;
16979;SDS011;42288;52.182;21.156;2022-09-09T04:52:46;9.47;;;4.30;;
16979;SDS011;42288;52.182;21.156;2022-09-09T04:55:11;7.30;;;4.40;;
16979;SDS011;42288;52.182;21.156;2022-09-09T04:57:38;8.90;;;4.73;;
16979;SDS011;42288;52.182;21.156;2022-09-09T05:00:04;7.43;;;4.20;;
16979;SDS011;42288;52.182;21.156;2022-09-09T05:02:30;8.83;;;4.33;;
16979;SDS011;42288;52.182;21.156;2022-09-09T05:04:57;8.10;;;4.27;;
16979;SDS011;42288;52.182;21.156;2022-09-09T05:07:23;7.70;;;4.27;;
16979;SDS011;42288;52.182;21.156;2022-09-09T05:09:48;8.80;;;4.13;;
16979;SDS011;42288;52.182;21.156;2022-09-09T05:12:14;5.10;;;3.90;;
16979;SDS011;42288;52.182;21.156;2022-09-09T05:14:41;7.73;;;4.27;;
16979;SDS011;42288;52.182;21.156;2022-09-09T05:17:07;7.63;;;4.20;;
16979;SDS011;42288;52.182;21.156;2022-09-09T05:19:33;8.23;;;4.20;;
16979;SDS011;42288;52.182;21.156;2022-09-09T05:21:58;9.53;;;4.13;;
16979;SDS011;42288;52.182;21.156;2022-09-09T05:24:24;6.30;;;4.17;;
16979;SDS011;42288;52.182;21.156;2022-09-09T05:26:49;7.97;;;4.40;;
16979;SDS011;42288;52.182;21.156;2022-09-09T05:29:15;7.80;;;4.20;;
16979;SDS011;42288;52.182;21.156;2022-09-09T05:31:44;7.40;;;4.07;;
16979;SDS011;42288;52.182;21.156;2022-09-09T05:34:10;5.83;;;3.70;;
16979;SDS011;42288;52.182;21.156;2022-09-09T05:36:36;6.23;;;4.03;;
16979;SDS011;42288;52.182;21.156;2022-09-09T05:39:02;6.33;;;4.00;;
16979;SDS011;42288;52.182;21.156;2022-09-09T05:41:27;5.63;;;3.73;;
16979;SDS011;42288;52.182;21.156;2022-09-09T05:43:54;7.47;;;4.03;;
16979;SDS011;42288;52.182;21.156;2022-09-09T05:46:20;7.93;;;3.73;;
16979;SDS011;42288;52.182;21.156;2022-09-09T05:48:47;5.20;;;3.70;;
16979;SDS011;42288;52.182;21.156;2022-09-09T05:51:16;5.40;;;3.83;;
16979;SDS011;42288;52.182;21.156;2022-09-09T05:53:44;8.27;;;4.10;;
16979;SDS011;42288;52.182;21.156;2022-09-09T05:56:11;8.00;;;3.67;;
16979;SDS011;42288;52.182;21.156;2022-09-09T05:58:41;4.80;;;3.53;;
16979;SDS011;42288;52.182;21.156;2022-09-09T06:01:12;6.63;;;3.97;;
16979;SDS011;42288;52.182;21.156;2022-09-09T06:03:40;8.37;;;4.07;;
16979;SDS011;42288;52.182;21.156;2022-09-09T06:06:08;6.30;;;3.60;;
16979;SDS011;42288;52.182;21.156;2022-09-09T06:08:35;7.13;;;3.90;;
16979;SDS011;42288;52.182;21.156;2022-09-09T06:11:22;10.00;;;4.70;;
16979;SDS011;42288;52.182;21.156;2022-09-09T06:13:49;5.53;;;3.80;;
16979;SDS011;42288;52.182;21.156;2022-09-09T06:16:19;9.83;;;5.20;;
16979;SDS011;42288;52.182;21.156;2022-09-09T06:18:50;6.90;;;4.60;;
16979;SDS011;42288;52.182;21.156;2022-09-09T06:21:17;7.67;;;4.47;;
16979;SDS011;42288;52.182;21.156;2022-09-09T06:23:44;7.70;;;4.10;;
16979;SDS011;42288;52.182;21.156;2022-09-09T06:26:11;8.83;;;5.00;;
16979;SDS011;42288;52.182;21.156;2022-09-09T06:28:44;8.33;;;4.97;;
16979;SDS011;42288;52.182;21.156;2022-09-09T06:31:12;9.53;;;4.87;;
16979;SDS011;42288;52.182;21.156;2022-09-09T06:33:40;9.23;;;5.03;;
16979;SDS011;42288;52.182;21.156;2022-09-09T06:39:03;5.57;;;4.03;;
16979;SDS011;42288;52.182;21.156;2022-09-09T06:41:30;13.13;;;5.27;;
16979;SDS011;42288;52.182;21.156;2022-09-09T06:43:58;9.63;;;5.80;;
16979;SDS011;42288;52.182;21.156;2022-09-09T06:46:24;7.13;;;5.50;;
16979;SDS011;42288;52.182;21.156;2022-09-09T06:48:56;10.23;;;5.97;;
16979;SDS011;42288;52.182;21.156;2022-09-09T06:51:24;13.73;;;5.40;;
16979;SDS011;42288;52.182;21.156;2022-09-09T06:53:55;9.23;;;5.37;;
16979;SDS011;42288;52.182;21.156;2022-09-09T06:56:28;10.67;;;6.27;;
16979;SDS011;42288;52.182;21.156;2022-09-09T06:58:56;9.13;;;5.87;;
16979;SDS011;42288;52.182;21.156;2022-09-09T07:01:24;10.70;;;6.13;;
16979;SDS011;42288;52.182;21.156;2022-09-09T07:03:53;9.97;;;6.70;;
16979;SDS011;42288;52.182;21.156;2022-09-09T07:09:05;9.37;;;6.37;;
16979;SDS011;42288;52.182;21.156;2022-09-09T07:11:33;9.73;;;5.93;;
16979;SDS011;42288;52.182;21.156;2022-09-09T07:14:02;10.77;;;6.10;;
16979;SDS011;42288;52.182;21.156;2022-09-09T07:16:27;11.93;;;6.23;;
16979;SDS011;42288;52.182;21.156;2022-09-09T07:18:54;10.17;;;6.20;;
16979;SDS011;42288;52.182;21.156;2022-09-09T07:21:22;9.43;;;5.57;;
16979;SDS011;42288;52.182;21.156;2022-09-09T07:23:49;10.90;;;6.10;;
16979;SDS011;42288;52.182;21.156;2022-09-09T07:26:19;12.43;;;6.60;;
16979;SDS011;42288;52.182;21.156;2022-09-09T07:28:46;11.47;;;6.13;;
16979;SDS011;42288;52.182;21.156;2022-09-09T07:31:19;11.33;;;6.67;;
16979;SDS011;42288;52.182;21.156;2022-09-09T07:33:46;10.33;;;6.47;;
16979;SDS011;42288;52.182;21.156;2022-09-09T07:36:16;11.67;;;6.23;;
16979;SDS011;42288;52.182;21.156;2022-09-09T07:38:48;9.07;;;6.20;;
16979;SDS011;42288;52.182;21.156;2022-09-09T07:41:19;9.63;;;6.03;;
16979;SDS011;42288;52.182;21.156;2022-09-09T07:43:47;11.40;;;6.60;;
16979;SDS011;42288;52.182;21.156;2022-09-09T07:46:14;10.80;;;6.70;;
16979;SDS011;42288;52.182;21.156;2022-09-09T07:48:44;11.50;;;6.37;;
16979;SDS011;42288;52.182;21.156;2022-09-09T07:51:12;11.73;;;6.50;;
16979;SDS011;42288;52.182;21.156;2022-09-09T07:53:41;11.13;;;6.33;;
16979;SDS011;42288;52.182;21.156;2022-09-09T07:56:08;10.90;;;6.37;;
16979;SDS011;42288;52.182;21.156;2022-09-09T07:58:36;14.30;;;6.40;;
16979;SDS011;42288;52.182;21.156;2022-09-09T08:01:09;11.30;;;7.27;;
16979;SDS011;42288;52.182;21.156;2022-09-09T08:03:36;11.70;;;6.80;;
16979;SDS011;42288;52.182;21.156;2022-09-09T08:06:03;13.63;;;6.67;;
16979;SDS011;42288;52.182;21.156;2022-09-09T08:08:31;11.43;;;6.57;;
16979;SDS011;42288;52.182;21.156;2022-09-09T08:11:01;12.63;;;6.93;;
16979;SDS011;42288;52.182;21.156;2022-09-09T08:13:28;10.17;;;6.67;;
16979;SDS011;42288;52.182;21.156;2022-09-09T08:15:55;10.13;;;6.20;;
16979;SDS011;42288;52.182;21.156;2022-09-09T08:18:27;10.93;;;6.80;;
16979;SDS011;42288;52.182;21.156;2022-09-09T08:20:53;10.77;;;6.67;;
16979;SDS011;42288;52.182;21.156;2022-09-09T08:23:18;12.80;;;7.10;;
16979;SDS011;42288;52.182;21.156;2022-09-09T08:25:44;11.57;;;6.53;;
16979;SDS011;42288;52.182;21.156;2022-09-09T08:28:10;11.33;;;7.07;;
16979;SDS011;42288;52.182;21.156;2022-09-09T08:30:36;12.37;;;7.10;;
16979;SDS011;42288;52.182;21.156;2022-09-09T08:33:02;10.23;;;6.73;;
16979;SDS011;42288;52.182;21.156;2022-09-09T08:35:28;11.93;;;6.60;;
16979;SDS011;42288;52.182;21.156;2022-09-09T08:37:57;11.40;;;6.60;;
16979;SDS011;42288;52.182;21.156;2022-09-09T08:40:31;13.33;;;7.17;;
16979;SDS011;42288;52.182;21.156;2022-09-09T08:43:03;13.17;;;7.50;;
16979;SDS011;42288;52.182;21.156;2022-09-09T08:45:37;13.03;;;7.70;;
16979;SDS011;42288;52.182;21.156;2022-09-09T08:51:25;14.73;;;7.97;;
16979;SDS011;42288;52.182;21.156;2022-09-09T08:53:53;12.63;;;7.00;;
16979;SDS011;42288;52.182;21.156;2022-09-09T08:56:23;11.97;;;6.77;;
16979;SDS011;42288;52.182;21.156;2022-09-09T08:58:52;9.90;;;6.80;;
16979;SDS011;42288;52.182;21.156;2022-09-09T09:01:25;17.90;;;7.70;;
16979;SDS011;42288;52.182;21.156;2022-09-09T09:07:01;13.73;;;8.07;;
16979;SDS011;42288;52.182;21.156;2022-09-09T09:09:37;16.13;;;8.50;;
16979;SDS011;42288;52.182;21.156;2022-09-09T09:12:21;15.17;;;8.57;;
16979;SDS011;42288;52.182;21.156;2022-09-09T09:14:50;12.87;;;8.30;;
16979;SDS011;42288;52.182;21.156;2022-09-09T09:19:45;14.80;;;8.60;;
16979;SDS011;42288;52.182;21.156;2022-09-09T09:22:22;13.77;;;7.83;;
16979;SDS011;42288;52.182;21.156;2022-09-09T09:25:16;17.10;;;8.67;;
16979;SDS011;42288;52.182;21.156;2022-09-09T09:27:52;18.10;;;9.60;;
16979;SDS011;42288;52.182;21.156;2022-09-09T09:30:43;14.77;;;8.40;;
16979;SDS011;42288;52.182;21.156;2022-09-09T09:36:04;16.80;;;9.30;;
16979;SDS011;42288;52.182;21.156;2022-09-09T09:38:33;16.77;;;10.00;;
16979;SDS011;42288;52.182;21.156;2022-09-09T09:40:59;19.97;;;10.33;;
16979;SDS011;42288;52.182;21.156;2022-09-09T09:43:29;16.87;;;9.90;;
16979;SDS011;42288;52.182;21.156;2022-09-09T09:45:59;15.77;;;8.87;;
16979;SDS011;42288;52.182;21.156;2022-09-09T09:48:25;16.93;;;10.67;;
16979;SDS011;42288;52.182;21.156;2022-09-09T09:50:53;16.90;;;9.97;;
16979;SDS011;42288;52.182;21.156;2022-09-09T09:53:24;18.17;;;10.17;;
16979;SDS011;42288;52.182;21.156;2022-09-09T09:56:03;20.10;;;10.23;;
16979;SDS011;42288;52.182;21.156;2022-09-09T09:58:57;20.83;;;9.83;;
16979;SDS011;42288;52.182;21.156;2022-09-09T10:01:30;15.90;;;10.13;;
16979;SDS011;42288;52.182;21.156;2022-09-09T10:04:14;18.57;;;10.77;;
16979;SDS011;42288;52.182;21.156;2022-09-09T10:06:41;15.47;;;9.60;;
16979;SDS011;42288;52.182;21.156;2022-09-09T10:11:56;15.53;;;9.77;;
16979;SDS011;42288;52.182;21.156;2022-09-09T10:17:19;20.03;;;11.13;;
16979;SDS011;42288;52.182;21.156;2022-09-09T10:22:35;21.67;;;10.93;;
16979;SDS011;42288;52.182;21.156;2022-09-09T10:36:12;22.23;;;11.60;;
16979;SDS011;42288;52.182;21.156;2022-09-09T10:38:46;21.00;;;10.97;;
16979;SDS011;42288;52.182;21.156;2022-09-09T10:41:26;20.13;;;11.10;;
16979;SDS011;42288;52.182;21.156;2022-09-09T10:49:47;20.67;;;12.63;;
16979;SDS011;42288;52.182;21.156;2022-09-09T10:52:52;23.37;;;12.83;;
16979;SDS011;42288;52.182;21.156;2022-09-09T10:55:48;23.47;;;12.67;;
16979;SDS011;42288;52.182;21.156;2022-09-09T10:58:31;20.80;;;12.43;;
16979;SDS011;42288;52.182;21.156;2022-09-09T11:01:18;24.40;;;13.40;;
16979;SDS011;42288;52.182;21.156;2022-09-09T11:03:57;25.80;;;13.77;;
16979;SDS011;42288;52.182;21.156;2022-09-09T11:06:37;21.20;;;12.43;;
16979;SDS011;42288;52.182;21.156;2022-09-09T11:09:08;20.37;;;12.00;;
16979;SDS011;42288;52.182;21.156;2022-09-09T11:11:43;23.00;;;12.63;;
16979;SDS011;42288;52.182;21.156;2022-09-09T11:14:15;27.37;;;14.37;;
16979;SDS011;42288;52.182;21.156;2022-09-09T11:17:09;23.67;;;13.30;;
16979;SDS011;42288;52.182;21.156;2022-09-09T11:19:46;23.00;;;13.77;;
16979;SDS011;42288;52.182;21.156;2022-09-09T11:25:18;22.50;;;13.30;;
16979;SDS011;42288;52.182;21.156;2022-09-09T11:31:06;20.80;;;13.10;;
16979;SDS011;42288;52.182;21.156;2022-09-09T11:34:03;25.47;;;14.87;;
16979;SDS011;42288;52.182;21.156;2022-09-09T11:44:38;26.63;;;15.90;;
16979;SDS011;42288;52.182;21.156;2022-09-09T11:47:14;25.83;;;14.63;;
16979;SDS011;42288;52.182;21.156;2022-09-09T11:49:54;28.50;;;15.83;;
16979;SDS011;42288;52.182;21.156;2022-09-09T11:52:42;23.80;;;14.70;;
16979;SDS011;42288;52.182;21.156;2022-09-09T11:55:19;26.97;;;15.10;;
16979;SDS011;42288;52.182;21.156;2022-09-09T11:58:37;26.47;;;15.43;;
16979;SDS011;42288;52.182;21.156;2022-09-09T12:00:44;27.23;;;15.60;;
16979;SDS011;42288;52.182;21.156;2022-09-09T12:09:05;29.60;;;15.43;;
16979;SDS011;42288;52.182;21.156;2022-09-09T12:11:33;25.73;;;14.20;;
16979;SDS011;42288;52.182;21.156;2022-09-09T12:13:59;29.13;;;15.43;;
16979;SDS011;42288;52.182;21.156;2022-09-09T12:16:30;26.87;;;16.47;;
16979;SDS011;42288;52.182;21.156;2022-09-09T12:19:05;24.33;;;14.53;;
16979;SDS011;42288;52.182;21.156;2022-09-09T12:24:14;29.13;;;15.03;;
16979;SDS011;42288;52.182;21.156;2022-09-09T12:27:12;27.93;;;16.60;;
16979;SDS011;42288;52.182;21.156;2022-09-09T12:29:43;29.67;;;15.60;;
16979;SDS011;42288;52.182;21.156;2022-09-09T12:32:28;30.70;;;15.37;;
16979;SDS011;42288;52.182;21.156;2022-09-09T12:34:55;28.83;;;15.37;;
16979;SDS011;42288;52.182;21.156;2022-09-09T12:37:28;29.63;;;14.83;;
16979;SDS011;42288;52.182;21.156;2022-09-09T12:40:36;22.87;;;12.93;;
16979;SDS011;42288;52.182;21.156;2022-09-09T12:43:14;26.43;;;14.50;;
16979;SDS011;42288;52.182;21.156;2022-09-09T12:45:46;26.70;;;14.97;;
16979;SDS011;42288;52.182;21.156;2022-09-09T12:48:12;26.43;;;15.60;;
16979;SDS011;42288;52.182;21.156;2022-09-09T12:50:44;30.53;;;17.00;;
16979;SDS011;42288;52.182;21.156;2022-09-09T12:56:07;19.80;;;11.67;;
16979;SDS011;42288;52.182;21.156;2022-09-09T12:58:35;29.57;;;15.03;;
16979;SDS011;42288;52.182;21.156;2022-09-09T13:01:03;31.70;;;16.37;;
16979;SDS011;42288;52.182;21.156;2022-09-09T13:03:30;30.77;;;15.60;;
16979;SDS011;42288;52.182;21.156;2022-09-09T13:06:10;34.63;;;16.40;;
16979;SDS011;42288;52.182;21.156;2022-09-09T13:08:37;24.80;;;14.50;;
16979;SDS011;42288;52.182;21.156;2022-09-09T13:11:04;24.90;;;13.63;;
16979;SDS011;42288;52.182;21.156;2022-09-09T13:13:38;28.03;;;14.70;;
16979;SDS011;42288;52.182;21.156;2022-09-09T13:16:07;54.27;;;19.73;;
16979;SDS011;42288;52.182;21.156;2022-09-09T13:18:51;43.80;;;17.43;;
16979;SDS011;42288;52.182;21.156;2022-09-09T13:21:16;84.80;;;26.53;;
16979;SDS011;42288;52.182;21.156;2022-09-09T13:23:47;46.77;;;18.97;;
16979;SDS011;42288;52.182;21.156;2022-09-09T13:26:22;30.93;;;16.00;;
16979;SDS011;42288;52.182;21.156;2022-09-09T13:28:50;30.33;;;15.43;;
16979;SDS011;42288;52.182;21.156;2022-09-09T13:31:30;26.60;;;13.80;;
16979;SDS011;42288;52.182;21.156;2022-09-09T13:34:10;30.77;;;15.60;;
16979;SDS011;42288;52.182;21.156;2022-09-09T13:36:39;30.97;;;15.90;;
16979;SDS011;42288;52.182;21.156;2022-09-09T13:39:13;30.33;;;14.93;;
16979;SDS011;42288;52.182;21.156;2022-09-09T13:41:43;29.80;;;15.27;;
16979;SDS011;42288;52.182;21.156;2022-09-09T13:44:28;27.67;;;13.97;;
16979;SDS011;42288;52.182;21.156;2022-09-09T13:49:32;30.60;;;15.57;;
16979;SDS011;42288;52.182;21.156;2022-09-09T13:52:11;35.67;;;17.10;;
16979;SDS011;42288;52.182;21.156;2022-09-09T13:54:40;32.63;;;15.73;;
16979;SDS011;42288;52.182;21.156;2022-09-09T13:57:13;28.67;;;14.03;;
16979;SDS011;42288;52.182;21.156;2022-09-09T13:59:42;33.87;;;16.17;;
16979;SDS011;42288;52.182;21.156;2022-09-09T14:02:07;32.23;;;16.80;;
16979;SDS011;42288;52.182;21.156;2022-09-09T14:04:33;34.97;;;16.63;;
16979;SDS011;42288;52.182;21.156;2022-09-09T14:06:59;34.97;;;16.57;;
16979;SDS011;42288;52.182;21.156;2022-09-09T14:09:26;35.03;;;17.10;;
16979;SDS011;42288;52.182;21.156;2022-09-09T14:11:51;35.23;;;15.77;;
16979;SDS011;42288;52.182;21.156;2022-09-09T14:14:16;32.80;;;16.07;;
16979;SDS011;42288;52.182;21.156;2022-09-09T14:16:42;33.47;;;17.23;;
16979;SDS011;42288;52.182;21.156;2022-09-09T14:19:08;28.43;;;15.53;;
16979;SDS011;42288;52.182;21.156;2022-09-09T14:21:34;28.50;;;15.17;;
16979;SDS011;42288;52.182;21.156;2022-09-09T14:24:00;34.00;;;16.90;;
16979;SDS011;42288;52.182;21.156;2022-09-09T14:26:25;29.47;;;15.30;;
16979;SDS011;42288;52.182;21.156;2022-09-09T14:28:51;31.57;;;15.63;;
16979;SDS011;42288;52.182;21.156;2022-09-09T14:31:17;32.93;;;16.37;;
16979;SDS011;42288;52.182;21.156;2022-09-09T14:33:43;30.27;;;16.53;;
16979;SDS011;42288;52.182;21.156;2022-09-09T14:36:09;31.00;;;17.27;;
16979;SDS011;42288;52.182;21.156;2022-09-09T14:38:36;31.63;;;15.77;;
16979;SDS011;42288;52.182;21.156;2022-09-09T14:41:07;37.17;;;18.87;;
16979;SDS011;42288;52.182;21.156;2022-09-09T14:43:37;32.07;;;16.77;;
16979;SDS011;42288;52.182;21.156;2022-09-09T14:46:10;33.97;;;17.20;;
16979;SDS011;42288;52.182;21.156;2022-09-09T14:48:37;33.60;;;17.07;;
16979;SDS011;42288;52.182;21.156;2022-09-09T14:51:10;32.47;;;17.67;;
16979;SDS011;42288;52.182;21.156;2022-09-09T14:53:39;35.80;;;21.70;;
16979;SDS011;42288;52.182;21.156;2022-09-09T14:56:08;37.03;;;20.97;;
16979;SDS011;42288;52.182;21.156;2022-09-09T14:58:35;38.90;;;20.13;;
16979;SDS011;42288;52.182;21.156;2022-09-09T15:01:06;36.40;;;19.70;;
16979;SDS011;42288;52.182;21.156;2022-09-09T15:03:40;31.77;;;15.50;;
16979;SDS011;42288;52.182;21.156;2022-09-09T15:06:14;33.90;;;17.30;;
16979;SDS011;42288;52.182;21.156;2022-09-09T15:08:41;36.13;;;19.57;;
16979;SDS011;42288;52.182;21.156;2022-09-09T15:11:08;39.13;;;18.87;;
16979;SDS011;42288;52.182;21.156;2022-09-09T15:13:35;31.53;;;17.13;;
16979;SDS011;42288;52.182;21.156;2022-09-09T15:16:06;27.17;;;14.83;;
16979;SDS011;42288;52.182;21.156;2022-09-09T15:18:33;32.77;;;18.83;;
16979;SDS011;42288;52.182;21.156;2022-09-09T15:21:01;27.90;;;15.50;;
16979;SDS011;42288;52.182;21.156;2022-09-09T15:23:32;30.20;;;17.43;;
16979;SDS011;42288;52.182;21.156;2022-09-09T15:25:59;32.43;;;17.00;;
16979;SDS011;42288;52.182;21.156;2022-09-09T15:28:25;34.90;;;18.00;;
16979;SDS011;42288;52.182;21.156;2022-09-09T15:30:51;32.60;;;15.70;;
16979;SDS011;42288;52.182;21.156;2022-09-09T15:33:17;27.03;;;14.73;;
16979;SDS011;42288;52.182;21.156;2022-09-09T15:35:46;28.07;;;14.97;;
16979;SDS011;42288;52.182;21.156;2022-09-09T15:38:13;27.83;;;15.47;;
16979;SDS011;42288;52.182;21.156;2022-09-09T15:40:39;31.07;;;14.77;;
16979;SDS011;42288;52.182;21.156;2022-09-09T15:43:05;27.93;;;15.23;;
16979;SDS011;42288;52.182;21.156;2022-09-09T15:45:32;36.30;;;16.83;;
16979;SDS011;42288;52.182;21.156;2022-09-09T15:47:58;24.57;;;14.63;;
16979;SDS011;42288;52.182;21.156;2022-09-09T15:50:28;29.87;;;14.67;;
16979;SDS011;42288;52.182;21.156;2022-09-09T15:52:57;25.07;;;14.47;;
16979;SDS011;42288;52.182;21.156;2022-09-09T15:55:23;26.27;;;14.93;;
16979;SDS011;42288;52.182;21.156;2022-09-09T15:57:49;31.47;;;16.43;;
16979;SDS011;42288;52.182;21.156;2022-09-09T16:00:14;32.07;;;16.77;;
16979;SDS011;42288;52.182;21.156;2022-09-09T16:02:40;31.20;;;16.20;;
16979;SDS011;42288;52.182;21.156;2022-09-09T16:05:06;32.40;;;16.10;;
16979;SDS011;42288;52.182;21.156;2022-09-09T16:07:31;30.77;;;16.73;;
16979;SDS011;42288;52.182;21.156;2022-09-09T16:09:57;27.50;;;14.97;;
16979;SDS011;42288;52.182;21.156;2022-09-09T16:12:22;32.03;;;15.43;;
16979;SDS011;42288;52.182;21.156;2022-09-09T16:14:48;28.27;;;15.43;;
16979;SDS011;42288;52.182;21.156;2022-09-09T16:17:13;30.00;;;14.23;;
16979;SDS011;42288;52.182;21.156;2022-09-09T16:19:40;23.43;;;12.20;;
16979;SDS011;42288;52.182;21.156;2022-09-09T16:22:05;25.60;;;14.10;;